createdAt,value
2023-05-20T04:01:25.614Z,14.30
2023-05-20T04:03:53.543Z,14.20
2023-05-20T04:06:22.440Z,14.20
2023-05-20T04:08:50.741Z,14.10
2023-05-20T04:11:18.540Z,14.10
2023-05-20T04:13:46.325Z,14.10
2023-05-20T04:16:14.989Z,14.00
2023-05-20T04:18:45.997Z,14.00
2023-05-20T04:21:13.877Z,14.00
2023-05-20T04:23:41.798Z,14.10
2023-05-20T04:26:09.590Z,14.10
2023-05-20T04:28:37.679Z,14.10
2023-05-20T04:31:05.751Z,14.20
2023-05-20T04:33:37.811Z,14.20
2023-05-20T04:36:08.722Z,14.30
2023-05-20T04:38:37.337Z,14.30
2023-05-20T04:41:05.467Z,14.30
2023-05-20T04:43:33.757Z,14.30
2023-05-20T04:46:06.223Z,14.30
2023-05-20T04:48:34.298Z,14.30
2023-05-20T04:51:02.160Z,14.40
2023-05-20T04:53:31.449Z,14.40
2023-05-20T04:55:59.278Z,14.30
2023-05-20T04:58:29.538Z,14.40
2023-05-20T05:00:57.874Z,14.40
2023-05-20T05:03:25.735Z,14.40
2023-05-20T05:05:57.059Z,14.40
2023-05-20T05:08:24.919Z,14.50
2023-05-20T05:13:22.219Z,14.60
2023-05-20T05:15:50.083Z,14.50
2023-05-20T05:18:18.549Z,14.60
2023-05-20T05:23:14.492Z,14.70
2023-05-20T05:25:42.409Z,14.70
2023-05-20T05:28:11.519Z,14.70
2023-05-20T05:30:39.781Z,14.80
2023-05-20T05:33:07.678Z,14.90
2023-05-20T05:35:35.642Z,15.00
2023-05-20T05:38:03.584Z,15.00
2023-05-20T05:40:31.333Z,15.00
2023-05-20T05:42:59.181Z,15.10
2023-05-20T05:45:28.283Z,15.10
2023-05-20T05:55:21.327Z,15.10
2023-05-20T05:57:49.112Z,15.10
2023-05-20T06:02:46.970Z,15.00
2023-05-20T06:05:14.921Z,15.00
2023-05-20T06:07:42.714Z,15.00
2023-05-20T06:10:11.571Z,15.00
2023-05-20T06:12:39.368Z,14.90
2023-05-20T06:15:08.398Z,15.00
2023-05-20T06:17:36.339Z,15.00
2023-05-20T06:20:06.532Z,15.00
2023-05-20T06:22:34.335Z,15.10
2023-05-20T06:25:02.405Z,15.10
2023-05-20T06:27:30.371Z,15.10
2023-05-20T06:29:58.192Z,15.10
2023-05-20T06:32:25.982Z,15.20
2023-05-20T06:34:53.805Z,15.30
2023-05-20T06:37:24.394Z,15.30
2023-05-20T06:39:54.143Z,15.30
2023-05-20T06:42:22.216Z,15.30
2023-05-20T06:44:49.995Z,15.30
2023-05-20T06:47:18.991Z,15.20
2023-05-20T06:49:47.761Z,15.20
2023-05-20T06:52:15.695Z,15.20
2023-05-20T06:54:44.802Z,15.20
2023-05-20T06:59:41.629Z,15.20
2023-05-20T07:02:09.473Z,15.40
2023-05-20T07:04:37.450Z,15.50
2023-05-20T07:07:05.524Z,15.50
2023-05-20T07:09:33.330Z,15.60
2023-05-20T07:12:02.401Z,15.50
2023-05-20T07:14:30.217Z,15.50
2023-05-20T07:16:58.054Z,15.60
2023-05-20T07:19:25.970Z,15.70
2023-05-20T07:21:53.841Z,15.80
2023-05-20T07:24:21.657Z,15.80
2023-05-20T07:26:49.489Z,15.70
2023-05-20T07:29:18.692Z,15.70
2023-05-20T07:34:14.910Z,15.80
2023-05-20T07:36:43.728Z,15.90
2023-05-20T07:39:14.420Z,15.90
2023-05-20T07:41:43.287Z,16.00
2023-05-20T07:44:11.316Z,16.00
2023-05-20T07:46:41.822Z,16.00
2023-05-20T07:49:09.884Z,16.00
2023-05-20T07:51:38.152Z,16.10
2023-05-20T07:56:35.029Z,16.20
2023-05-20T07:59:03.357Z,16.30
2023-05-20T08:01:31.781Z,16.40
2023-05-20T08:04:01.161Z,16.50
2023-05-20T08:06:29.923Z,16.60
2023-05-20T08:08:57.952Z,16.70
2023-05-20T08:11:25.802Z,16.80
2023-05-20T08:13:53.595Z,17.00
2023-05-20T08:16:22.679Z,16.90
2023-05-20T08:18:50.613Z,16.90
2023-05-20T08:21:19.792Z,17.10
2023-05-20T08:23:47.577Z,17.20
2023-05-20T08:26:15.672Z,17.10
2023-05-20T08:28:43.528Z,17.30
2023-05-20T08:31:11.426Z,17.40
2023-05-20T08:33:39.680Z,17.40
2023-05-20T08:36:08.300Z,17.50
2023-05-20T08:38:37.623Z,17.60
2023-05-20T08:41:05.426Z,17.70
2023-05-20T08:43:33.512Z,17.70
2023-05-20T08:46:03.015Z,17.70
2023-05-20T08:48:32.296Z,17.70
2023-05-20T08:51:01.642Z,17.80
2023-05-20T08:53:29.690Z,17.70
2023-05-20T08:56:03.092Z,17.70
2023-05-20T08:58:31.387Z,17.60
2023-05-20T09:00:59.770Z,17.60
2023-05-20T09:03:27.801Z,17.70
2023-05-20T09:06:04.230Z,17.80
2023-05-20T09:08:32.544Z,17.80
2023-05-20T09:11:01.760Z,17.90
2023-05-20T09:13:32.402Z,17.70
2023-05-20T09:16:01.936Z,17.80
2023-05-20T09:18:30.223Z,17.80
2023-05-20T09:20:58.526Z,17.90
2023-05-20T09:23:27.828Z,17.90
2023-05-20T09:25:55.685Z,18.00
2023-05-20T09:28:25.977Z,18.10
2023-05-20T09:30:58.982Z,18.10
2023-05-20T09:33:29.860Z,18.10
2023-05-20T09:36:04.093Z,18.20
2023-05-20T09:38:37.753Z,18.10
2023-05-20T09:41:09.047Z,18.30
2023-05-20T09:43:40.787Z,18.40
2023-05-20T09:48:38.038Z,18.20
2023-05-20T09:51:06.917Z,18.30
2023-05-20T09:53:34.783Z,18.30
2023-05-20T09:56:02.659Z,18.50
2023-05-20T09:58:31.014Z,18.70
2023-05-20T10:01:00.199Z,18.80
2023-05-20T10:03:28.855Z,18.80
2023-05-20T10:06:24.220Z,18.80
2023-05-20T10:09:06.479Z,18.80
2023-05-20T10:11:41.341Z,18.70
2023-05-20T10:14:26.806Z,18.70
2023-05-20T10:17:07.859Z,18.50
2023-05-20T10:19:36.147Z,18.50
2023-05-20T10:22:06.032Z,18.50
2023-05-20T10:24:35.353Z,18.60
2023-05-20T10:27:04.936Z,18.70
2023-05-20T10:29:44.171Z,18.80
2023-05-20T10:32:13.689Z,19.00
2023-05-20T10:34:49.737Z,19.10
2023-05-20T10:37:28.243Z,19.10
2023-05-20T10:40:07.851Z,19.20
2023-05-20T10:42:35.858Z,19.30
2023-05-20T10:45:04.983Z,19.40
2023-05-20T10:47:34.691Z,19.40
2023-05-20T10:50:04.795Z,19.40
2023-05-20T10:55:04.774Z,19.40
2023-05-20T10:57:33.197Z,19.40
2023-05-20T11:00:01.396Z,19.20
2023-05-20T11:02:29.675Z,19.40
2023-05-20T11:04:59.437Z,19.40
2023-05-20T11:07:28.968Z,19.50
2023-05-20T11:09:57.121Z,19.50
2023-05-20T11:12:26.980Z,19.60
2023-05-20T11:14:55.303Z,19.60
2023-05-20T11:17:23.173Z,19.40
2023-05-20T11:19:51.943Z,19.40
2023-05-20T11:22:21.129Z,19.40
2023-05-20T11:27:17.197Z,19.30
2023-05-20T11:29:45.166Z,19.40
2023-05-20T11:32:13.715Z,19.40
2023-05-20T11:34:42.654Z,19.50
2023-05-20T11:37:12.158Z,19.60
2023-05-20T11:39:41.273Z,19.80
2023-05-20T11:42:09.099Z,19.90
2023-05-20T11:44:37.068Z,19.90
2023-05-20T11:47:05.336Z,20.10
2023-05-20T11:49:40.737Z,20.20
2023-05-20T11:52:11.416Z,20.20
2023-05-20T11:57:09.320Z,20.20
2023-05-20T11:59:37.597Z,20.20
2023-05-20T12:02:05.444Z,20.20
2023-05-20T12:04:33.339Z,20.20
2023-05-20T12:07:01.894Z,20.20
2023-05-20T12:09:29.664Z,20.30
2023-05-20T12:11:57.599Z,20.40
2023-05-20T12:14:26.795Z,20.50
2023-05-20T12:19:23.339Z,20.30
2023-05-20T12:21:52.913Z,20.30
2023-05-20T12:24:21.258Z,20.30
2023-05-20T12:26:49.291Z,20.40
2023-05-20T12:29:17.103Z,20.40
2023-05-20T12:31:46.362Z,20.30
2023-05-20T12:34:14.263Z,20.20
2023-05-20T12:36:42.392Z,20.00
2023-05-20T12:39:11.049Z,20.10
2023-05-20T12:41:39.044Z,20.00
2023-05-20T12:44:07.115Z,19.90
2023-05-20T12:46:35.079Z,19.80
2023-05-20T12:49:04.285Z,19.70
2023-05-20T12:51:32.053Z,19.70
2023-05-20T12:53:59.809Z,19.90
2023-05-20T12:56:27.714Z,19.80
2023-05-20T12:58:55.562Z,19.80
2023-05-20T13:01:23.366Z,19.90
2023-05-20T13:03:53.346Z,19.90
2023-05-20T13:06:22.584Z,20.00
2023-05-20T13:08:50.863Z,20.10
2023-05-20T13:11:18.677Z,20.00
2023-05-20T13:13:46.629Z,20.00
2023-05-20T13:21:12.861Z,19.90
2023-05-20T13:23:43.949Z,20.00
2023-05-20T13:26:11.780Z,20.10
2023-05-20T13:28:39.664Z,20.10
2023-05-20T13:31:07.848Z,20.20
2023-05-20T13:33:35.809Z,20.20
2023-05-20T13:36:03.842Z,20.20
2023-05-20T13:38:31.696Z,20.30
2023-05-20T13:41:00.840Z,20.40
2023-05-20T13:43:28.832Z,20.50
2023-05-20T13:45:56.857Z,20.40
2023-05-20T13:50:53.035Z,20.20
2023-05-20T13:53:21.032Z,20.30
2023-05-20T13:55:48.798Z,20.40
2023-05-20T13:58:17.934Z,20.40
2023-05-20T14:00:46.174Z,20.50
2023-05-20T14:03:14.105Z,20.60
2023-05-20T14:08:10.240Z,20.80
2023-05-20T14:13:08.879Z,23.90
2023-05-20T14:15:38.298Z,20.80
2023-05-20T14:18:06.259Z,20.90
2023-05-20T14:25:30.781Z,20.90
2023-05-20T14:30:27.046Z,20.70
2023-05-20T14:32:56.286Z,20.80
2023-05-20T14:40:20.658Z,21.10
2023-05-20T14:42:48.528Z,21.10
2023-05-20T14:50:14.325Z,21.40
2023-05-20T14:55:10.595Z,21.60
2023-05-20T15:07:33.222Z,21.90
2023-05-20T15:14:57.441Z,21.90
2023-05-20T15:17:25.409Z,21.90
2023-05-20T15:22:21.548Z,22.00
2023-05-20T15:24:50.758Z,22.10
2023-05-20T15:27:18.617Z,22.20
2023-05-20T15:34:42.950Z,22.20
2023-05-20T15:39:39.591Z,22.20
2023-05-20T15:42:13.657Z,22.10
2023-05-20T15:44:41.710Z,22.00
2023-05-20T15:47:09.591Z,22.00
2023-05-20T15:49:37.615Z,22.10
2023-05-20T15:52:06.142Z,22.00
2023-05-20T15:54:34.027Z,22.10
2023-05-20T15:57:02.478Z,22.20
2023-05-20T15:59:31.846Z,22.30
2023-05-20T16:01:59.927Z,22.30
2023-05-20T16:09:24.282Z,22.20
2023-05-20T16:11:52.149Z,22.20
2023-05-20T16:16:49.671Z,22.10
2023-05-20T16:19:17.658Z,22.10
2023-05-20T16:21:46.010Z,22.10
2023-05-20T16:24:13.961Z,22.10
2023-05-20T16:26:41.818Z,22.00
2023-05-20T16:29:10.775Z,22.00
2023-05-20T16:31:38.780Z,22.00
2023-05-20T16:34:08.533Z,21.90
2023-05-20T16:36:36.553Z,21.90
2023-05-20T16:39:04.570Z,21.90
2023-05-20T16:41:32.625Z,21.80
2023-05-20T16:44:00.443Z,21.80
2023-05-20T16:46:28.301Z,21.70
2023-05-20T16:48:57.027Z,21.60
2023-05-20T16:51:26.268Z,21.50
2023-05-20T16:53:54.328Z,21.50
2023-05-20T16:56:23.307Z,21.40
2023-05-20T16:58:52.935Z,21.30
2023-05-20T17:01:21.532Z,21.20
2023-05-20T17:03:52.462Z,21.20
2023-05-20T17:06:20.423Z,21.10
2023-05-20T17:08:49.701Z,21.10
2023-05-20T17:11:17.624Z,21.00
2023-05-20T17:13:45.418Z,20.90
2023-05-20T17:16:13.351Z,20.80
2023-05-20T17:18:41.367Z,20.70
2023-05-20T17:21:09.283Z,20.70
2023-05-20T17:23:37.308Z,20.70
2023-05-20T17:26:06.556Z,20.70
2023-05-20T17:28:34.310Z,20.70
2023-05-20T17:31:02.183Z,20.60
2023-05-20T17:33:30.047Z,20.60
2023-05-20T17:35:58.045Z,20.50
2023-05-20T17:38:26.348Z,20.50
2023-05-20T17:40:54.463Z,20.50
2023-05-20T17:43:25.097Z,20.50
2023-05-20T17:45:53.130Z,20.40
2023-05-20T17:48:21.120Z,20.30
2023-05-20T17:50:48.961Z,20.20
2023-05-20T17:53:18.646Z,20.20
2023-05-20T17:55:47.634Z,20.20
2023-05-20T17:58:15.781Z,20.10
2023-05-20T18:00:44.950Z,20.20
2023-05-20T18:03:13.845Z,20.20
2023-05-20T18:05:41.957Z,20.00
2023-05-20T18:08:09.731Z,20.00
2023-05-20T18:10:37.891Z,20.00
2023-05-20T18:13:06.361Z,19.90
2023-05-20T18:15:34.417Z,19.80
2023-05-20T18:18:03.640Z,19.80
2023-05-20T18:20:31.581Z,19.70
2023-05-20T18:22:59.511Z,19.70
2023-05-20T18:27:55.891Z,19.60
2023-05-20T18:30:24.180Z,19.70
2023-05-20T18:32:53.215Z,19.60
2023-05-20T18:35:22.635Z,19.60
2023-05-20T18:37:51.376Z,19.60
2023-05-20T18:42:48.566Z,19.50
2023-05-20T18:47:45.006Z,19.40
2023-05-20T18:50:13.063Z,19.40
2023-05-20T18:52:42.269Z,19.40
2023-05-20T18:55:10.392Z,19.30
2023-05-20T18:57:39.087Z,19.20
2023-05-20T19:00:10.670Z,19.10
2023-05-20T19:02:38.935Z,19.00
2023-05-20T19:05:08.324Z,19.00
2023-05-20T19:07:36.597Z,18.90
2023-05-20T19:10:06.845Z,18.90
2023-05-20T19:12:34.872Z,18.90
2023-05-20T19:15:05.008Z,18.90
2023-05-20T19:17:32.899Z,18.80
2023-05-20T19:20:00.923Z,18.80
2023-05-20T19:22:28.747Z,18.70
2023-05-20T19:24:56.725Z,18.70
2023-05-20T19:27:26.024Z,18.60
2023-05-20T19:29:54.045Z,18.50
2023-05-20T19:32:21.912Z,18.50
2023-05-20T19:34:49.876Z,18.40
2023-05-20T19:37:17.757Z,18.30
2023-05-20T19:39:45.913Z,18.40
2023-05-20T19:42:14.088Z,18.40
2023-05-20T19:44:46.471Z,18.40
2023-05-20T19:47:14.428Z,18.40
2023-05-20T19:49:42.264Z,18.30
2023-05-20T19:52:10.121Z,18.40
2023-05-20T19:54:37.981Z,18.30
2023-05-20T19:57:09.165Z,18.40
2023-05-20T19:59:38.059Z,18.40
2023-05-20T20:02:08.122Z,18.40
2023-05-20T20:04:36.093Z,18.30
2023-05-20T20:09:32.460Z,18.30
2023-05-20T20:12:00.247Z,18.30
2023-05-20T20:14:28.132Z,18.10
2023-05-20T20:16:55.980Z,18.10
2023-05-20T20:19:26.109Z,18.10
2023-05-20T20:21:56.662Z,18.10
2023-05-20T20:24:25.037Z,18.00
2023-05-20T20:26:54.290Z,18.00
2023-05-20T20:29:23.003Z,18.00
2023-05-20T20:31:51.588Z,18.00
2023-05-20T20:36:51.211Z,17.90
2023-05-20T20:39:19.986Z,17.90
2023-05-20T20:41:50.326Z,17.90
2023-05-20T20:44:20.940Z,17.80
2023-05-20T20:46:50.821Z,17.70
2023-05-20T20:49:19.315Z,17.70
2023-05-20T20:51:52.293Z,17.70
2023-05-20T20:54:20.551Z,17.70
2023-05-20T20:59:18.828Z,17.70
2023-05-20T21:01:46.690Z,17.70
2023-05-20T21:04:14.551Z,17.60
2023-05-20T21:06:45.812Z,17.60
2023-05-20T21:09:15.561Z,17.60
2023-05-20T21:11:49.468Z,17.60
2023-05-20T21:14:17.388Z,17.60
2023-05-20T21:16:45.216Z,17.50
2023-05-20T21:19:13.111Z,17.50
2023-05-20T21:21:40.994Z,17.60
2023-05-20T21:24:08.811Z,17.50
2023-05-20T21:26:38.001Z,17.50
2023-05-20T21:29:06.070Z,17.40
2023-05-20T21:31:33.978Z,17.40
2023-05-20T21:34:01.844Z,17.40
2023-05-20T21:38:58.168Z,17.30
2023-05-20T21:41:27.287Z,17.40
2023-05-20T21:43:56.647Z,17.30
2023-05-20T21:46:24.669Z,17.30
2023-05-20T21:48:52.691Z,17.30
2023-05-20T21:51:20.721Z,17.30
2023-05-20T21:56:17.191Z,17.20
2023-05-20T21:58:45.027Z,17.20
2023-05-20T22:01:14.278Z,17.20
2023-05-20T22:03:47.981Z,17.20
2023-05-20T22:08:46.223Z,17.10
2023-05-20T22:11:15.310Z,17.10
2023-05-20T22:13:43.161Z,17.10
2023-05-20T22:16:11.152Z,17.10
2023-05-20T22:21:08.671Z,17.00
2023-05-20T22:23:36.899Z,17.00
2023-05-20T22:26:04.885Z,17.00
2023-05-20T22:28:32.761Z,17.00
2023-05-20T22:31:02.564Z,17.00
2023-05-20T22:33:30.375Z,17.00
2023-05-20T22:35:59.488Z,16.90
2023-05-20T22:38:29.254Z,16.90
2023-05-20T22:40:57.085Z,16.90
2023-05-20T22:43:24.873Z,16.80
2023-05-20T22:45:52.691Z,16.80
2023-05-20T22:48:22.889Z,16.80
2023-05-20T22:50:53.085Z,16.80
2023-05-20T22:53:22.228Z,16.80
2023-05-20T22:55:50.084Z,16.70
2023-05-20T22:58:17.879Z,16.70
2023-05-20T23:00:45.926Z,16.70
2023-05-20T23:03:13.934Z,16.70
2023-05-20T23:05:41.778Z,16.60
2023-05-20T23:08:09.665Z,16.60
2023-05-20T23:10:38.958Z,16.60
2023-05-20T23:13:06.839Z,16.60
2023-05-20T23:15:34.810Z,16.60
2023-05-20T23:18:02.815Z,16.60
2023-05-20T23:20:30.619Z,16.60
2023-05-20T23:23:00.129Z,16.50
2023-05-20T23:28:00.986Z,16.50
2023-05-20T23:30:28.802Z,16.50
2023-05-20T23:32:57.731Z,16.50
2023-05-20T23:37:53.900Z,16.50
2023-05-20T23:42:50.034Z,16.40
2023-05-20T23:45:19.363Z,16.40
2023-05-20T23:47:47.914Z,16.40
2023-05-20T23:50:15.973Z,16.40
2023-05-20T23:52:43.775Z,16.40
2023-05-20T23:55:14.169Z,16.30
2023-05-20T23:57:42.087Z,16.30
